EA1HWD
43.28.96N 005.26.30W
IN73GL aprs.fi
zuletzt gehoert:
2022-10-03T12:31:24Z
zuerst gehoert:
2020-02-10T15:02:48Z

APRS IN73GL, 2 Stunde(n), EA1HWD [14:40:49, 0s].
EA1FHR 43.28.72N 005.26.41WIN73GL 0.419km 310°NW12:30:55ZMMDVM MMDVM HS Hat 439.1500/439.1500 CC1
EA1HWD 43.28.96N 005.26.30WIN73GL 0.730km 347°NNW12:31:24ZMMDVM MMDVM HS Hat 434.2500/434.2500 CC1
EA1JW 43.31.35N 005.28.83WIN73GM 6.254km 325°NW12:30:34ZMMDVM MMDVM HS Hat 436.5000/436.5000 CC1(3EA1JW-3)
EB1GEM 43.30.00N 005.36.07WIN73EM 13.559km 281°W12:31:26ZWX3in1Plus2.0 U=13.3V,T=??.?C/??.?F(3EB1GEM-3)
EA1JBE 43.30.90N 005.16.15WIN73IM 14.153km 72°ENE12:15:02ZTransmission ended(3EA1JBE-9)
Dario(2EA1JBE-7)
Dario(2EA1JBE-13)
MAIN QTH http://qrz.com/db/ea1jbe(2EA1JBE-1)
EA4ACU 43.29.56N 005.38.92WIN73EL 17.240km 276°W12:31:30ZMMDVM MMDVM HS Hat 432.7000/432.7000 CC1(3EA4ACU-1)
EA1GCN 43.19.20N 005.24.60WIN73HH 17.503km 173°S12:00:20Z440 Voice 432.56875MHz +0.0000MHz(3EA1GCN-B)
MMDVM MMDVM HS Hat 432.5688/432.5688 CC1(2EA1GCN)
EA1JBD 43.32.24N 005.38.83WIN73EM 18.306km 292°WNW12:30:27ZMMDVM MMDVM HS Hat 431.0375/431.0375 CC1
EA1FLQ 43.22.00N 005.36.35WIN73EI 18.335km 228°SW12:31:29ZMMDVM DVMega 430.9750/430.9750 CC1
ED1ZAS 43.27.52N 005.40.17WIN73DL 18.927km 264°W12:30:08ZRD985 438.2250/430.6250 CC1
ED1ZAE 43.27.97N 005.40.54WIN73DL 19.355km 267°W12:22:14ZWIDE3-3 ESAS3-3 IN73DL WWW.EA1URG.ORG(3ED1ZAE-3)
2m Voice 145.5875 -0.600 Mhz(2ED1ZAE-C)
EA1FFA 43.31.53N 005.40.64WIN73DM 20.196km 286°WNW12:31:23ZMMDVM MMDVM HS Hat 438.8000/438.8000 CC1(3EA1FFA-1)
EA1IEJ 43.31.81N 005.40.64WIN73DM 20.343km 287°WNW12:31:05ZMMDVM DMO 222.3400/222.3400 CC1(3EA1IEJ-11)
MMDVM MMDVM HS Hat 438.8500/438.8500 CC6(2EA1IEJ-1)
LEEL 43.32.98N 005.41.71WIN73DN 22.420km 291°WNW12:30:03ZHelipuerto de El Musel: LEAS 031130Z 09005KT 030V160 CAVOK 21/16 Q1022 NOSIG=
EA1FPN 43.32.39N 005.42.17WIN73DM 22.621km 288°WNW12:31:06ZMMDVM MMDVM HS Hat 439.8750/439.8750 CC1
EB1TK 43.32.22N 005.42.32WIN73DM 22.723km 287°WNW12:40:17ZWind 052°/011kn, Böen bis 014kn, Temp 19.44c, Regen 0.0mm, letzte 24h 0.0mm, seit 0h 0.0mm, Baro 1024.6h, Hum: 88%(3EB1TK-13)
EA1IPU 43.26.21N 005.46.62WIN73CK 27.837km 261°W12:31:04ZMMDVM MMDVM HS Hat 439.8000/439.8000 CC1(3EA1IPU-1)
EA1DZR 43.12.88N 005.24.00WIN73HF 29.214km 174°S12:30:50ZMMDVM DV ADER 434.3500/434.3500 CC1(3EA1DZR-4)
MMDVM MMDVM HS Hat 432.2000/432.2000 CC2(2EA1DZR-2)
MMDVM DVMega 431.1000/431.1000 CC1(2EA1DZR-1)
440 MMDVM Voice 433.10000MHz +0.0000MHz, APRS for DMRGateway(2EA1DZR-D)
EA1ABW 43.24.77N 005.47.77WIN73CJ 29.898km 257°WSW12:30:51ZMMDVM MMDVM HS Hat 439.8250/439.8250 CC1(3EA1ABW-1)
MMDVM MMDVM HS Hat 439.8250/439.8250 CC1(2EA1ABW-2)
EC1AE 43.22.75N 005.47.60WIN73CJ 30.793km 250°WSW12:39:37Z`EC1AE - FM & Digital C4FM._%(3EC1AE-9)
ED1ZBF 43.19.16N 005.06.74WIN73KH 31.434km 124°SE12:30:09ZRD625 438.4750/430.8750 CC1
LEMR 43.25.83N 005.49.60WIN73CK 31.924km 261°W12:30:03ZAerodromo de la Morgal (123.500MHz): LEAS 031130Z 09005KT 030V160 CAVOK 21/16 Q1022 NOSIG=
LEGM 43.26.15N 005.49.84WIN73CK 32.138km 262°W12:30:03ZHelipuerto de La Morgal (123.500MHz): LEAS 031130Z 09005KT 030V160 CAVOK 21/16 Q1022 NOSIG=
LEHU 43.22.63N 005.49.57WIN73CJ 33.362km 251°WSW12:30:03ZHelipuerto del HUCA: LEAS 031130Z 09005KT 030V160 CAVOK 21/16 Q1022 NOSIG=
EA1JBU 43.21.85N 005.51.13WIN73BI 35.830km 250°WSW12:32:04ZEA1JBU(3EA1JBU-1)
33D00 43.21.63N 005.51.13WIN73BI 35.962km 249°WSW12:01:42Z33-D-00 Protección Civil REMER / Delegación del Gobierno en Asturias
EA1JAY 43.21.54N 005.51.34WIN73BI 36.299km 249°WSW12:00:07ZEA1JAY(3EA1JAY-2)
434.525MHz Nodo TETRA DMO(2EA1JAY-4)
EA1L 43.20.38N 005.51.13WIN73BI 36.865km 246°WSW12:32:28ZWind 336°/001kn, Böen bis 003kn, Temp 22.22c, Regen 0.0mm, letzte 24h 0.0mm, seit 0h 0.0mm, Baro 1019.9h, Hum: 69%(3EA1L-13)
ea1l@ure.es V=12.8V(2EA1L)
ED1ZAU 43.23.04N 005.52.75WIN73BJ 37.209km 254°WSW12:30:09ZRD625 438.5000/430.9000 CC1
EA1HJA 43.21.47N 005.52.09WIN73BI 37.282km 249°WSW12:39:58ZEA1HJA@URE.ES(3EA1HJA-2)
IN73FL WX3IN1+ 2.0 - V=13.4V,TX TEMP=44.9C(2EA1HJA)
EA1HWX 43.19.28N 005.50.98WIN73BH 37.570km 243°WSW12:31:39ZDMO - UHF 439.7250/431.0000 CC11(3EA1HWX-2)
MMDVM DMO 222.3400/222.3400 CC1(2EA1HWX-10)
EA1IMW 43.14.36N 005.46.93WIN73CF 38.411km 227°SW12:31:50ZGRUPO RADIO GALENA (GRG) 430.4500/430.4500 CC1(3EA1IMW-1)
EA1IQT 43.32.34N 005.54.44WIN73BM 38.627km 281°W12:00:24ZMMDVM MMDVM HS Hat 433.6250/433.6250 CC1
EA1AHA 43.32.72N 005.54.38WIN73BN 38.670km 282°WNW12:33:22ZMMDVM MMDVM HS Hat 432.0000/432.0000 CC1
Wind 000°/000kn, Böen bis 000kn, Temp 23.33c, Regen 0.0mm, letzte 24h 0.0mm, seit 0h 0.0mm, Baro 1023.1h, Hum: 63%(2EA1AHA-13)
EB1DGC 43.12.60N 005.45.59WIN73CF 39.512km 222°SW12:31:09ZMMDVM MMDVM HS Hat 433.4500/433.4500 CC1
EA1BCU 43.32.91N 005.55.30WIN73AN 39.948km 282°WNW11:57:13ZAnt-QFH U/VHF
ED1ZAY 43.29.47N 005.56.54WIN73AL 40.865km 273°W12:30:09ZRD625 438.3000/430.7000 CC1
EA1JBL 43.12.28N 005.47.42WIN73CE 41.602km 224°SW12:31:31Z*Jose*(3EA1JBL-7)
MMDVM DVMega 435.3000/435.3000 CC1(2EA1JBL)
ED1ZAD 43.07.90N 005.38.52WIN73ED 41.758km 204°SSW12:27:04ZED1ZAD-3 APRS Digi/Igate(3ED1ZAD-3)
EA1HWA 43.12.00N 005.47.40WIN73CE 41.967km 223°SW12:30:50ZMMDVM MMDVM HS Hat 433.4500/433.4500 CC1
EA1RCG 43.09.45N 005.49.78WIN73CD 47.621km 222°SW12:30:44ZGRUPO RADIO GALENA (GRG) 430.4500/430.4500 CC1(3EA1RCG-3)

aprs.pl 5.0.011w DL3EL © 2006-2021 [5799023]